Time;durP1;ratioP1;P1;durP2;ratioP2;P2;SDS_P1;SDS_P2;PMS_P1;PMS_P2;Temp;Humidity;BMP_temperature;BMP_pressure;BME280_temperature;BME280_humidity;BME280_pressure;Samples;Min_cycle;Max_cycle;Signal;HPM_P1;HPM_P2
2023/04/03 00:00:49;;;;;;;1.60;1.43;;;3.30;98.20;;;;;;5000075;28;20563;-73
2023/04/03 00:03:16;;;;;;;1.60;1.50;;;3.30;98.20;;;;;;5015494;28;20495;-74
2023/04/03 00:05:43;;;;;;;1.60;1.40;;;3.20;98.20;;;;;;5011020;28;20495;-73
2023/04/03 00:08:10;;;;;;;1.60;1.50;;;3.20;98.20;;;;;;5006502;28;20842;-73
2023/04/03 00:10:38;;;;;;;1.60;1.50;;;3.10;98.20;;;;;;5010103;28;20702;-74
2023/04/03 00:13:05;;;;;;;1.60;1.50;;;3.10;98.20;;;;;;4997670;28;20939;-74
2023/04/03 00:15:32;;;;;;;1.60;1.50;;;3.10;98.20;;;;;;5011001;28;20577;-73
2023/04/03 00:17:59;;;;;;;1.60;1.50;;;3.10;98.20;;;;;;5003727;28;20483;-73
2023/04/03 00:20:27;;;;;;;1.60;1.50;;;3.00;98.20;;;;;;5010009;28;20839;-74
2023/04/03 00:22:53;;;;;;;1.70;1.60;;;3.00;98.20;;;;;;5003335;28;20532;-74
2023/04/03 00:25:20;;;;;;;1.60;1.50;;;3.00;98.20;;;;;;5010933;28;20847;-74
2023/04/03 00:27:48;;;;;;;1.60;1.50;;;3.00;98.20;;;;;;5005601;28;20483;-73
2023/04/03 00:30:17;;;;;;;1.60;1.50;;;3.00;98.20;;;;;;5009600;28;20488;-74
2023/04/03 00:32:44;;;;;;;1.60;1.50;;;2.90;98.20;;;;;;5000369;28;20482;-74
2023/04/03 00:35:11;;;;;;;1.60;1.50;;;2.90;98.20;;;;;;5010812;28;20467;-73
2023/04/03 00:37:38;;;;;;;1.60;1.50;;;2.90;98.20;;;;;;5004670;28;21022;-74
2023/04/03 00:40:06;;;;;;;1.60;1.50;;;2.80;98.20;;;;;;5008975;28;20483;-77
2023/04/03 00:42:32;;;;;;;1.60;1.40;;;2.80;98.20;;;;;;4997946;28;20480;-76
2023/04/03 00:45:28;;;;;;;1.70;1.60;;;2.80;98.20;;;;;;5010333;28;20498;-77
2023/04/03 00:47:56;;;;;;;1.70;1.60;;;2.80;98.20;;;;;;5003670;28;20479;-75
2023/04/03 00:50:24;;;;;;;1.60;1.40;;;2.80;98.20;;;;;;5007924;28;20497;-76
2023/04/03 00:52:51;;;;;;;1.60;1.50;;;2.80;98.20;;;;;;5003713;28;20576;-76
2023/04/03 00:55:18;;;;;;;1.63;1.53;;;2.80;98.20;;;;;;5011026;28;20479;-75
2023/04/03 00:57:46;;;;;;;1.60;1.47;;;2.70;98.20;;;;;;5006839;28;21031;-74
2023/04/03 01:00:17;;;;;;;1.60;1.50;;;2.70;98.20;;;;;;5009901;28;20491;-75
2023/04/03 01:02:45;;;;;;;1.60;1.50;;;2.70;98.20;;;;;;4999928;28;20898;-74
2023/04/03 01:05:13;;;;;;;1.60;1.50;;;2.70;98.20;;;;;;5011207;28;20534;-76
2023/04/03 01:07:41;;;;;;;1.60;1.50;;;2.70;98.20;;;;;;5006342;28;21036;-76
2023/04/03 01:10:13;;;;;;;1.60;1.50;;;2.70;98.20;;;;;;5010146;28;20865;-74
2023/04/03 01:12:41;;;;;;;1.60;1.50;;;2.60;98.20;;;;;;4997899;28;20562;-76
2023/04/03 01:15:11;;;;;;;1.60;1.50;;;2.60;98.20;;;;;;5009424;28;20479;-76
2023/04/03 01:17:39;;;;;;;1.60;1.40;;;2.60;98.20;;;;;;5003372;28;20476;-76
2023/04/03 01:21:10;;;;;;;1.60;1.50;;;2.60;98.20;;;;;;5011026;28;20519;-76
2023/04/03 01:23:57;;;;;;;1.70;1.60;;;2.50;98.20;;;;;;5006268;28;20476;-76
2023/04/03 01:26:25;;;;;;;1.70;1.60;;;2.50;98.20;;;;;;4997771;28;20854;-76
2023/04/03 01:28:54;;;;;;;1.60;1.50;;;2.50;98.20;;;;;;5010598;28;21010;-75
2023/04/03 01:31:26;;;;;;;10.47;5.53;;;2.50;98.20;;;;;;4999889;28;20487;-75
2023/04/03 01:33:54;;;;;;;1.60;1.50;;;2.50;98.20;;;;;;5014370;28;20484;-76
2023/04/03 01:36:24;;;;;;;1.60;1.50;;;2.50;98.20;;;;;;5000498;28;20480;-73
2023/04/03 01:38:51;;;;;;;1.60;1.50;;;2.50;98.20;;;;;;5007463;28;20472;-75
2023/04/03 01:41:18;;;;;;;1.60;1.50;;;2.40;98.20;;;;;;4999435;28;20516;-74
2023/04/03 01:43:45;;;;;;;1.70;1.60;;;2.40;98.20;;;;;;5006267;28;20467;-76
2023/04/03 01:46:12;;;;;;;1.70;1.60;;;2.40;98.20;;;;;;4990874;28;20845;-75
2023/04/03 01:48:39;;;;;;;1.67;1.57;;;2.40;98.20;;;;;;5011220;28;20468;-77
2023/04/03 01:51:07;;;;;;;1.60;1.50;;;2.40;98.20;;;;;;5003520;28;20497;-75
2023/04/03 01:53:34;;;;;;;1.70;1.60;;;2.40;98.20;;;;;;5017123;28;20461;-76
2023/04/03 01:56:01;;;;;;;1.60;1.50;;;2.30;98.20;;;;;;4989236;28;20466;-75
2023/04/03 01:58:28;;;;;;;1.70;1.60;;;2.30;98.20;;;;;;4998923;28;20480;-76
2023/04/03 02:00:55;;;;;;;1.70;1.60;;;2.30;98.20;;;;;;4996418;28;20866;-76
2023/04/03 02:03:22;;;;;;;1.60;1.50;;;2.30;98.20;;;;;;5007306;28;20927;-73
2023/04/03 02:05:50;;;;;;;1.60;1.50;;;2.30;98.20;;;;;;5010314;28;20475;-73
2023/04/03 02:08:18;;;;;;;1.70;1.60;;;2.20;98.20;;;;;;5012396;28;20982;-73
2023/04/03 02:10:47;;;;;;;1.70;1.60;;;2.20;98.20;;;;;;5012319;28;20480;-72
2023/04/03 02:13:14;;;;;;;1.70;1.60;;;2.20;98.20;;;;;;4978588;28;20484;-73
2023/04/03 02:15:41;;;;;;;1.60;1.50;;;2.20;98.20;;;;;;5020589;28;20555;-73
2023/04/03 02:18:08;;;;;;;1.60;1.50;;;2.20;98.20;;;;;;5001311;28;20578;-72
2023/04/03 02:20:35;;;;;;;1.70;1.60;;;2.20;98.20;;;;;;5019348;28;20863;-72
2023/04/03 02:23:02;;;;;;;1.70;1.60;;;2.10;98.20;;;;;;5000882;28;20491;-73
2023/04/03 02:25:31;;;;;;;1.70;1.60;;;2.10;98.20;;;;;;5018677;28;20480;-72
2023/04/03 02:27:58;;;;;;;1.60;1.50;;;2.10;98.20;;;;;;5003868;28;21024;-73
2023/04/03 02:30:26;;;;;;;1.70;1.60;;;2.10;98.20;;;;;;5014276;28;20499;-73
2023/04/03 02:32:52;;;;;;;1.70;1.60;;;2.00;98.20;;;;;;5000516;28;20479;-73
2023/04/03 02:35:19;;;;;;;1.60;1.50;;;2.00;98.20;;;;;;5014779;28;20456;-73
2023/04/03 02:37:46;;;;;;;1.67;1.57;;;2.00;98.20;;;;;;5001116;28;20562;-73
2023/04/03 02:40:13;;;;;;;1.63;1.50;;;2.00;98.20;;;;;;5007550;28;20484;-72
2023/04/03 02:42:41;;;;;;;1.70;1.60;;;1.90;98.20;;;;;;4988791;28;20495;-73
2023/04/03 02:45:09;;;;;;;1.60;1.50;;;1.90;98.20;;;;;;5017580;28;20455;-75
2023/04/03 02:47:35;;;;;;;1.60;1.50;;;1.90;98.20;;;;;;4998152;28;20496;-74
2023/04/03 02:50:02;;;;;;;1.63;1.50;;;1.90;98.20;;;;;;5016543;28;21052;-73
2023/04/03 02:52:29;;;;;;;1.63;1.50;;;1.90;98.20;;;;;;5000131;28;20489;-73
2023/04/03 02:54:56;;;;;;;1.67;1.57;;;1.90;98.20;;;;;;5011686;28;20460;-76
2023/04/03 02:57:23;;;;;;;1.63;1.50;;;1.90;98.20;;;;;;4992419;28;20508;-75
2023/04/03 02:59:51;;;;;;;1.70;1.60;;;1.90;98.20;;;;;;5020057;28;20482;-75
2023/04/03 03:02:17;;;;;;;1.70;1.60;;;1.80;98.20;;;;;;5001901;28;20499;-74
2023/04/03 03:04:44;;;;;;;1.70;1.60;;;1.90;98.20;;;;;;5020017;28;20461;-73
2023/04/03 03:07:11;;;;;;;1.70;1.60;;;1.90;98.20;;;;;;5000784;28;20510;-74
2023/04/03 03:09:38;;;;;;;1.60;1.50;;;1.90;98.20;;;;;;5015872;28;20885;-73
2023/04/03 03:12:06;;;;;;;1.60;1.50;;;1.90;98.20;;;;;;4993648;28;20484;-75
2023/04/03 03:14:32;;;;;;;1.80;1.70;;;1.90;98.20;;;;;;5009235;28;21178;-74
2023/04/03 03:17:00;;;;;;;1.70;1.60;;;1.90;98.20;;;;;;5001127;28;20494;-74
2023/04/03 03:19:27;;;;;;;1.60;1.50;;;1.90;98.20;;;;;;5014762;28;20491;-75
2023/04/03 03:21:54;;;;;;;1.60;1.50;;;1.90;98.20;;;;;;5004635;28;20483;-73
2023/04/03 03:24:21;;;;;;;1.60;1.50;;;1.90;98.20;;;;;;5013302;28;20556;-74
2023/04/03 03:26:48;;;;;;;1.60;1.50;;;1.90;98.20;;;;;;5003198;28;20480;-76
2023/04/03 03:29:15;;;;;;;1.60;1.50;;;1.90;98.20;;;;;;5007146;28;20491;-74
2023/04/03 03:31:41;;;;;;;1.80;1.70;;;1.90;98.20;;;;;;4997784;28;20486;-75
2023/04/03 03:34:09;;;;;;;1.60;1.50;;;1.90;98.20;;;;;;5017709;28;20585;-73
2023/04/03 03:36:36;;;;;;;1.63;1.50;;;1.80;98.20;;;;;;5004268;28;20477;-74
2023/04/03 03:39:03;;;;;;;1.70;1.60;;;1.80;98.20;;;;;;5008366;28;20482;-73
2023/04/03 03:41:30;;;;;;;1.60;1.50;;;1.80;98.20;;;;;;5000215;28;20974;-73
2023/04/03 03:43:57;;;;;;;1.70;1.60;;;1.80;98.20;;;;;;5007768;28;20467;-75
2023/04/03 03:46:24;;;;;;;1.60;1.50;;;1.80;98.20;;;;;;5000987;28;20514;-73
2023/04/03 03:48:51;;;;;;;1.70;1.60;;;1.80;98.20;;;;;;5014509;28;20968;-73
2023/04/03 03:51:19;;;;;;;1.60;1.50;;;1.80;98.20;;;;;;5002737;28;20507;-74
2023/04/03 03:53:46;;;;;;;1.60;1.50;;;1.80;98.20;;;;;;5010735;28;20538;-74
2023/04/03 03:56:13;;;;;;;1.70;1.60;;;1.70;98.20;;;;;;5007710;28;20483;-73
2023/04/03 03:58:40;;;;;;;1.60;1.50;;;1.70;98.20;;;;;;5016423;28;20474;-74
2023/04/03 04:01:07;;;;;;;1.60;1.50;;;1.70;98.20;;;;;;5006888;28;20488;-74
2023/04/03 04:03:35;;;;;;;1.60;1.50;;;1.70;98.20;;;;;;5010246;28;20495;-74
2023/04/03 04:06:01;;;;;;;1.70;1.60;;;1.70;98.20;;;;;;4996943;28;20578;-72
2023/04/03 04:08:29;;;;;;;1.70;1.60;;;1.70;98.20;;;;;;5015017;28;20460;-74
2023/04/03 04:10:56;;;;;;;1.70;1.60;;;1.70;98.20;;;;;;4995180;28;20491;-74
2023/04/03 04:13:24;;;;;;;1.60;1.50;;;1.70;98.20;;;;;;5004087;28;20971;-74
2023/04/03 04:15:51;;;;;;;1.70;1.60;;;1.70;98.20;;;;;;4997310;28;20480;-74
2023/04/03 04:18:19;;;;;;;1.63;1.50;;;1.70;98.20;;;;;;5010788;28;20507;-74
2023/04/03 04:20:46;;;;;;;1.70;1.60;;;1.70;98.20;;;;;;5006192;28;20480;-73
2023/04/03 04:23:13;;;;;;;1.70;1.60;;;1.60;98.20;;;;;;5016142;28;20467;-73
2023/04/03 04:25:41;;;;;;;1.70;1.60;;;1.60;98.20;;;;;;5009569;28;20491;-74
2023/04/03 04:28:08;;;;;;;1.63;1.53;;;1.60;98.20;;;;;;4990575;28;20485;-74
2023/04/03 04:30:34;;;;;;;1.70;1.60;;;1.60;98.20;;;;;;4999348;28;20488;-74
2023/04/03 04:33:01;;;;;;;1.70;1.60;;;1.60;98.20;;;;;;4992136;28;20486;-74
2023/04/03 04:35:28;;;;;;;1.70;1.60;;;1.60;98.20;;;;;;5006804;28;20472;-74
2023/04/03 04:37:55;;;;;;;1.87;1.77;;;1.60;98.20;;;;;;4995776;28;20484;-74
2023/04/03 04:40:22;;;;;;;1.70;1.60;;;1.50;98.20;;;;;;5056121;23;20502;-74
2023/04/03 04:42:51;;;;;;;1.70;1.60;;;1.50;98.20;;;;;;5001375;28;20483;-76
2023/04/03 04:45:18;;;;;;;1.70;1.60;;;1.50;98.20;;;;;;5011785;28;20460;-76
2023/04/03 04:47:45;;;;;;;1.67;1.57;;;1.50;98.20;;;;;;5001401;28;21013;-75
2023/04/03 04:50:12;;;;;;;1.70;1.60;;;1.50;98.20;;;;;;5006896;28;20933;-75
2023/04/03 04:52:40;;;;;;;1.70;1.60;;;1.50;98.20;;;;;;4988391;28;20479;-76
2023/04/03 04:55:10;;;;;;;1.60;1.50;;;1.50;98.20;;;;;;5007743;28;20468;-75
2023/04/03 04:57:40;;;;;;;1.70;1.60;;;1.50;98.20;;;;;;4989652;28;20985;-74
2023/04/03 05:00:15;;;;;;;1.60;1.50;;;1.50;98.20;;;;;;4989961;28;20850;-75
2023/04/03 05:02:42;;;;;;;1.70;1.60;;;1.50;98.20;;;;;;4964988;28;21099;-75
2023/04/03 05:05:09;;;;;;;1.80;1.70;;;1.50;98.20;;;;;;4986431;28;20457;-74
2023/04/03 05:07:36;;;;;;;1.70;1.60;;;1.50;98.20;;;;;;4973179;28;20493;-76
2023/04/03 05:10:03;;;;;;;1.70;1.60;;;1.50;98.20;;;;;;4986878;28;20517;-76
2023/04/03 05:12:30;;;;;;;1.70;1.60;;;1.40;98.20;;;;;;4974459;28;20513;-75
2023/04/03 05:14:57;;;;;;;1.70;1.60;;;1.40;98.20;;;;;;4985401;28;20655;-76
2023/04/03 05:17:25;;;;;;;1.70;1.60;;;1.40;98.20;;;;;;4977656;28;20488;-76
2023/04/03 05:19:52;;;;;;;1.77;1.67;;;1.40;98.20;;;;;;4991321;28;20488;-77
2023/04/03 05:22:19;;;;;;;1.90;1.80;;;1.50;98.20;;;;;;4971068;28;20485;-77
2023/04/03 05:24:45;;;;;;;1.80;1.70;;;1.40;98.20;;;;;;4980437;28;20461;-76
2023/04/03 05:27:12;;;;;;;1.60;1.50;;;1.50;98.20;;;;;;4981868;28;20517;-77
2023/04/03 05:29:39;;;;;;;1.60;1.50;;;1.50;98.20;;;;;;4989153;28;20472;-74
2023/04/03 05:32:06;;;;;;;1.70;1.60;;;1.50;98.20;;;;;;4970881;28;20520;-77
2023/04/03 05:34:34;;;;;;;1.80;1.70;;;1.50;98.20;;;;;;4987104;28;20563;-78
2023/04/03 05:37:03;;;;;;;1.70;1.60;;;1.50;98.20;;;;;;4978204;28;20493;-75
2023/04/03 05:39:31;;;;;;;1.70;1.60;;;1.50;98.20;;;;;;4989161;28;20465;-77
2023/04/03 05:41:58;;;;;;;1.60;1.50;;;1.50;98.20;;;;;;4973574;28;20480;-78
2023/04/03 05:44:25;;;;;;;1.63;1.53;;;1.60;98.20;;;;;;4987055;28;20569;-75
2023/04/03 05:46:52;;;;;;;1.70;1.60;;;1.60;98.20;;;;;;4972655;28;20932;-76
2023/04/03 05:49:19;;;;;;;1.63;1.53;;;1.60;98.20;;;;;;4984160;28;20553;-75
2023/04/03 05:51:47;;;;;;;1.70;1.60;;;1.70;98.20;;;;;;4977587;28;20495;-76
2023/04/03 05:54:19;;;;;;;1.70;1.60;;;1.70;98.20;;;;;;4988301;28;20990;-76
2023/04/03 05:56:46;;;;;;;1.70;1.60;;;1.70;98.20;;;;;;4975769;28;20503;-73
2023/04/03 05:59:13;;;;;;;1.70;1.60;;;1.70;98.20;;;;;;4990146;28;20465;-74
2023/04/03 06:01:40;;;;;;;1.70;1.60;;;1.80;98.20;;;;;;4974671;28;21188;-73
2023/04/03 06:04:08;;;;;;;1.60;1.50;;;1.80;98.20;;;;;;4981216;28;20507;-76
2023/04/03 06:06:49;;;;;;;1.60;1.50;;;1.90;98.20;;;;;;4976460;28;20476;-75
2023/04/03 06:09:16;;;;;;;1.60;1.40;;;2.00;98.20;;;;;;4983619;28;20476;-75
2023/04/03 06:11:43;;;;;;;1.70;1.60;;;2.20;98.20;;;;;;4975640;28;20493;-74
2023/04/03 06:14:10;;;;;;;1.60;1.50;;;2.30;98.20;;;;;;4984442;28;20468;-74
2023/04/03 06:16:39;;;;;;;1.60;1.50;;;2.60;98.20;;;;;;4973904;28;20504;-74
2023/04/03 06:19:05;;;;;;;1.60;1.50;;;2.70;98.20;;;;;;4979611;28;20547;-74
2023/04/03 06:21:33;;;;;;;1.63;1.50;;;2.90;98.20;;;;;;4973653;28;20499;-74
2023/04/03 06:24:01;;;;;;;1.60;1.50;;;3.10;98.20;;;;;;4977336;28;20488;-75
2023/04/03 06:26:29;;;;;;;1.60;1.50;;;3.20;98.20;;;;;;4972303;28;20965;-75
2023/04/03 06:28:55;;;;;;;1.60;1.50;;;3.40;98.20;;;;;;4979671;28;21026;-75
2023/04/03 06:31:22;;;;;;;1.60;1.47;;;3.50;98.20;;;;;;4972554;28;20860;-75
2023/04/03 06:33:49;;;;;;;1.70;1.60;;;3.80;98.20;;;;;;4976363;28;20472;-77
2023/04/03 06:36:19;;;;;;;1.60;1.50;;;4.00;98.20;;;;;;4973952;28;20507;-75
2023/04/03 06:38:46;;;;;;;1.70;1.60;;;4.10;98.20;;;;;;4976662;28;20469;-76
2023/04/03 06:41:16;;;;;;;1.60;1.40;;;4.40;98.20;;;;;;4972597;28;20520;-75
2023/04/03 06:43:43;;;;;;;1.60;1.40;;;4.50;98.20;;;;;;4988493;28;20473;-75
2023/04/03 06:46:16;;;;;;;1.60;1.40;;;4.60;98.20;;;;;;4975149;28;20485;-75
2023/04/03 06:48:43;;;;;;;1.60;1.40;;;4.70;98.20;;;;;;4981738;28;20463;-73
2023/04/03 06:51:17;;;;;;;1.60;1.40;;;4.80;98.20;;;;;;4974439;28;20488;-75
2023/04/03 06:53:44;;;;;;;1.60;1.30;;;4.90;98.20;;;;;;4985492;28;20702;-74
2023/04/03 06:56:11;;;;;;;1.60;1.40;;;5.00;98.20;;;;;;4977139;28;20480;-74
2023/04/03 06:58:42;;;;;;;1.67;1.40;;;5.10;98.20;;;;;;4980605;28;21143;-77
2023/04/03 07:01:10;;;;;;;1.60;1.40;;;5.20;98.20;;;;;;4974575;28;20650;-80
2023/04/03 07:03:37;;;;;;;1.60;1.40;;;5.30;98.20;;;;;;4976564;28;20840;-74
2023/04/03 07:06:05;;;;;;;1.60;1.50;;;5.40;98.20;;;;;;4978084;28;20460;-74
2023/04/03 07:08:32;;;;;;;1.60;1.30;;;5.60;98.20;;;;;;4976342;28;20477;-74
2023/04/03 07:11:00;;;;;;;1.60;1.40;;;5.70;98.20;;;;;;4972683;28;20485;-74
2023/04/03 07:13:27;;;;;;;1.60;1.30;;;5.80;98.20;;;;;;4983041;28;20465;-75
2023/04/03 07:15:55;;;;;;;1.60;1.30;;;5.90;98.20;;;;;;4977315;28;20473;-75
2023/04/03 07:18:22;;;;;;;1.60;1.40;;;6.00;98.20;;;;;;4972746;28;20493;-74
2023/04/03 07:20:49;;;;;;;1.60;1.30;;;6.30;98.20;;;;;;4976014;28;21042;-74
2023/04/03 07:23:16;;;;;;;1.60;1.30;;;6.40;98.20;;;;;;4990049;28;20789;-75
2023/04/03 07:25:44;;;;;;;1.60;1.30;;;6.50;98.20;;;;;;4984833;28;20462;-76
2023/04/03 07:28:11;;;;;;;1.60;1.30;;;6.50;98.20;;;;;;4978949;28;20503;-76
2023/04/03 07:30:44;;;;;;;1.60;1.43;;;6.60;98.20;;;;;;4999793;28;20846;-75
2023/04/03 07:33:14;;;;;;;1.60;1.30;;;6.70;98.20;;;;;;4960314;28;20516;-78
2023/04/03 07:35:40;;;;;;;1.60;1.30;;;6.80;98.20;;;;;;4981636;28;20476;-76
2023/04/03 07:38:07;;;;;;;1.60;1.30;;;6.90;98.20;;;;;;4973521;28;20972;-76
2023/04/03 07:40:34;;;;;;;1.60;1.20;;;7.10;98.20;;;;;;4984872;28;21003;-76
2023/04/03 07:43:02;;;;;;;1.60;1.40;;;7.30;97.70;;;;;;4962065;28;20767;-76
2023/04/03 07:45:29;;;;;;;1.60;1.30;;;7.30;96.70;;;;;;4986300;28;20468;-75
2023/04/03 07:47:56;;;;;;;1.60;1.40;;;7.20;91.70;;;;;;4970100;28;21015;-74
2023/04/03 07:50:25;;;;;;;1.60;1.33;;;7.20;92.20;;;;;;4983892;28;20487;-75
2023/04/03 07:52:54;;;;;;;1.60;1.20;;;7.30;93.30;;;;;;4968115;28;21102;-75
2023/04/03 07:55:21;;;;;;;1.60;1.20;;;7.60;92.80;;;;;;4987299;28;20476;-76
2023/04/03 07:57:47;;;;;;;1.57;1.23;;;7.60;89.80;;;;;;4968813;28;20489;-75
2023/04/03 08:00:17;;;;;;;1.53;1.20;;;7.60;89.10;;;;;;4984889;28;20489;-76
2023/04/03 08:02:50;;;;;;;1.60;1.20;;;7.50;90.60;;;;;;4968079;28;20481;-75
2023/04/03 08:05:16;;;;;;;1.60;1.30;;;7.30;89.70;;;;;;4990618;28;20461;-75
2023/04/03 08:07:45;;;;;;;1.60;1.30;;;7.30;89.50;;;;;;4975101;28;20501;-76
2023/04/03 08:10:11;;;;;;;1.57;1.23;;;7.50;91.40;;;;;;4988015;28;20555;-77
2023/04/03 08:12:38;;;;;;;1.50;1.20;;;7.70;89.90;;;;;;4982794;28;20573;-75
2023/04/03 14:05:03;;;;;;;1.50;1.00;;;14.10;61.30;;;;;;4986817;28;20527;-73
2023/04/03 14:07:32;;;;;;;1.47;1.00;;;14.00;60.70;;;;;;4993891;28;20480;-73
2023/04/03 14:09:59;;;;;;;1.47;1.00;;;14.00;61.50;;;;;;5003069;28;20548;-73
2023/04/03 14:12:30;;;;;;;1.50;1.00;;;13.80;61.00;;;;;;4992826;28;20520;-73
2023/04/03 14:14:57;;;;;;;1.43;0.90;;;13.70;62.50;;;;;;5005929;28;20735;-73
2023/04/03 14:17:26;;;;;;;1.47;0.90;;;13.60;61.90;;;;;;4996412;28;20484;-73
2023/04/03 14:19:54;;;;;;;1.50;1.00;;;13.50;60.20;;;;;;5012075;28;20459;-73
2023/04/03 14:22:25;;;;;;;1.50;1.00;;;13.50;61.70;;;;;;4994085;28;20484;-73
2023/04/03 14:24:53;;;;;;;1.50;1.00;;;13.50;64.90;;;;;;5003799;28;20629;-73
2023/04/03 14:27:22;;;;;;;1.50;1.00;;;13.80;65.10;;;;;;4992968;28;20494;-73
2023/04/03 14:29:50;;;;;;;1.43;1.00;;;13.90;63.60;;;;;;5004868;28;20467;-72
2023/04/03 14:32:19;;;;;;;1.47;1.00;;;13.80;61.00;;;;;;4995651;28;20488;-73
2023/04/03 14:34:46;;;;;;;1.50;1.00;;;13.50;61.60;;;;;;5004634;28;20566;-73
2023/04/03 14:37:16;;;;;;;1.43;0.90;;;13.40;61.10;;;;;;4995245;28;20909;-74
2023/04/03 14:39:45;;;;;;;1.50;1.00;;;13.20;60.90;;;;;;5002264;28;20460;-73
2023/04/03 14:42:15;;;;;;;1.43;0.93;;;13.00;60.10;;;;;;4997378;28;21430;-72
2023/04/03 14:44:42;;;;;;;1.47;1.00;;;12.90;62.50;;;;;;4992384;28;21032;-74
2023/04/03 14:47:12;;;;;;;1.50;1.10;;;12.90;61.30;;;;;;4993602;28;20782;-73
2023/04/03 14:49:39;;;;;;;1.47;0.90;;;12.90;61.80;;;;;;5003504;28;20460;-73
2023/04/03 14:52:06;;;;;;;1.50;0.90;;;12.70;61.10;;;;;;4992167;28;20491;-73
2023/04/03 14:54:33;;;;;;;1.50;1.10;;;12.80;65.80;;;;;;5004229;28;20468;-73
2023/04/03 14:57:02;;;;;;;1.47;0.90;;;13.00;62.50;;;;;;4992913;28;20716;-73
2023/04/03 14:59:31;;;;;;;1.60;1.47;;;12.70;62.50;;;;;;5002065;28;20488;-74
2023/04/03 15:02:00;;;;;;;1.47;1.00;;;12.80;63.60;;;;;;4987165;28;21006;-72
2023/04/03 15:04:27;;;;;;;1.47;1.00;;;12.60;61.80;;;;;;5000161;28;20470;-73
2023/04/03 15:06:54;;;;;;;1.50;1.00;;;12.50;63.20;;;;;;4995196;28;20500;-72
2023/04/03 15:09:24;;;;;;;1.43;1.00;;;12.60;64.90;;;;;;4999290;28;20518;-73
2023/04/03 15:11:53;;;;;;;1.60;1.30;;;12.70;63.90;;;;;;4994586;28;20488;-73
2023/04/03 15:14:22;;;;;;;1.50;1.10;;;12.70;65.70;;;;;;5003778;28;20991;-74
2023/04/03 15:16:50;;;;;;;1.50;1.10;;;12.80;65.40;;;;;;4995883;28;20484;-73
2023/04/03 15:19:17;;;;;;;1.50;1.00;;;12.70;64.00;;;;;;5007744;28;20952;-72
2023/04/03 15:21:44;;;;;;;1.43;1.00;;;12.40;63.50;;;;;;4999109;28;20489;-72
2023/04/03 15:24:12;;;;;;;1.47;1.00;;;12.30;64.60;;;;;;5001645;28;20460;-72
2023/04/03 15:26:39;;;;;;;1.47;1.00;;;12.40;65.90;;;;;;4994981;28;20572;-74
2023/04/03 15:29:06;;;;;;;1.47;1.00;;;12.40;65.10;;;;;;5005823;28;20452;-73
2023/04/03 15:31:35;;;;;;;1.50;1.00;;;12.30;65.50;;;;;;4994178;28;20500;-73
2023/04/03 15:34:03;;;;;;;1.47;1.00;;;12.20;63.90;;;;;;5000938;28;20472;-73
2023/04/03 15:36:32;;;;;;;1.47;1.00;;;12.20;64.10;;;;;;4992599;28;20566;-72
2023/04/03 15:38:59;;;;;;;1.47;1.00;;;12.30;66.50;;;;;;4996115;28;20488;-73
2023/04/03 15:41:26;;;;;;;1.40;1.10;;;12.30;67.10;;;;;;4988883;28;21062;-73
2023/04/03 15:43:54;;;;;;;1.43;1.00;;;12.30;67.30;;;;;;4995379;28;20464;-73
2023/04/03 15:46:21;;;;;;;1.50;1.20;;;12.10;67.60;;;;;;4996106;28;20482;-72
2023/04/03 15:48:50;;;;;;;1.43;0.90;;;12.10;68.00;;;;;;4986095;28;20487;-72
2023/04/03 15:51:18;;;;;;;1.50;1.00;;;12.00;69.00;;;;;;4989084;28;20479;-72
2023/04/03 15:53:45;;;;;;;1.50;1.10;;;12.10;69.60;;;;;;5002685;28;20475;-73
2023/04/03 15:56:13;;;;;;;1.47;1.00;;;12.00;67.60;;;;;;4988632;28;20494;-73
2023/04/03 15:58:40;;;;;;;1.50;1.00;;;12.00;68.70;;;;;;4993233;28;21730;-74
2023/04/03 16:01:07;;;;;;;2.23;2.03;;;12.00;69.40;;;;;;4994133;28;20485;-73
2023/04/03 16:03:34;;;;;;;1.50;1.10;;;11.90;68.70;;;;;;4992206;28;20492;-73
2023/04/03 16:06:03;;;;;;;1.43;1.00;;;11.70;67.60;;;;;;4989806;28;20582;-73
2023/04/03 16:08:31;;;;;;;1.50;1.10;;;11.60;69.80;;;;;;4998688;28;21204;-74
2023/04/03 16:10:58;;;;;;;1.50;1.00;;;11.60;68.20;;;;;;4994602;28;20460;-74
2023/04/03 16:13:25;;;;;;;1.47;1.00;;;11.60;67.60;;;;;;5002990;28;20471;-74
2023/04/03 16:15:52;;;;;;;1.43;1.00;;;11.60;69.50;;;;;;4996107;28;20561;-74
2023/04/03 16:18:19;;;;;;;1.50;1.10;;;11.70;69.10;;;;;;5000739;28;20842;-74
2023/04/03 16:20:47;;;;;;;1.47;1.10;;;11.50;68.80;;;;;;5006237;28;20534;-74
2023/04/03 16:23:16;;;;;;;1.50;1.00;;;11.20;69.00;;;;;;4993128;28;20484;-74
2023/04/03 16:25:45;;;;;;;1.50;1.20;;;11.10;68.80;;;;;;5004106;28;20491;-73
2023/04/03 16:28:13;;;;;;;1.50;1.00;;;11.00;69.90;;;;;;4993827;28;20558;-73
2023/04/03 16:30:41;;;;;;;1.43;1.00;;;11.00;70.70;;;;;;5005880;28;20619;-73
2023/04/03 16:33:09;;;;;;;1.50;1.10;;;11.00;69.60;;;;;;4993047;28;21023;-73
2023/04/03 16:35:36;;;;;;;1.47;1.10;;;10.90;69.80;;;;;;5006161;28;20484;-73
2023/04/03 16:38:03;;;;;;;1.50;1.10;;;10.70;70.40;;;;;;4996901;28;20955;-73
2023/04/03 16:40:33;;;;;;;1.60;1.40;;;10.60;70.80;;;;;;5006264;28;20510;-73
2023/04/03 16:43:01;;;;;;;1.50;1.10;;;10.50;70.90;;;;;;4992333;28;20495;-74
2023/04/03 16:45:56;;;;;;;1.50;1.10;;;10.40;72.60;;;;;;5009938;28;20485;-78
2023/04/03 16:48:24;;;;;;;1.50;1.10;;;10.30;71.90;;;;;;4985023;28;20485;-76
2023/04/03 16:50:53;;;;;;;1.47;1.03;;;10.30;72.40;;;;;;4999629;28;20553;-75
2023/04/03 16:53:20;;;;;;;1.50;1.10;;;10.20;72.00;;;;;;5000454;28;20478;-74
2023/04/03 16:55:49;;;;;;;1.50;1.17;;;10.10;72.00;;;;;;5001680;28;20578;-74
2023/04/03 16:58:16;;;;;;;1.50;1.10;;;10.00;72.30;;;;;;5003668;28;20468;-76
2023/04/03 17:00:53;;;;;;;1.50;1.10;;;9.90;72.60;;;;;;5007441;28;20463;-77
2023/04/03 17:03:20;;;;;;;1.50;1.20;;;9.80;72.50;;;;;;4979371;28;20476;-74
2023/04/03 17:05:48;;;;;;;1.50;1.20;;;9.70;73.30;;;;;;5004937;28;20516;-75
2023/04/03 17:08:17;;;;;;;1.50;1.13;;;9.60;73.50;;;;;;5002613;28;20524;-74
2023/04/03 17:10:44;;;;;;;1.50;1.20;;;9.50;73.70;;;;;;5005867;28;20511;-74
2023/04/03 17:13:13;;;;;;;1.50;1.30;;;9.40;73.90;;;;;;4989901;28;20477;-75
2023/04/03 17:15:40;;;;;;;1.50;1.20;;;9.20;73.90;;;;;;5005339;28;20491;-74
2023/04/03 17:18:08;;;;;;;1.50;1.20;;;9.20;74.80;;;;;;4994073;28;21124;-73
2023/04/03 17:20:37;;;;;;;1.50;1.20;;;9.10;74.80;;;;;;5006430;28;20468;-74
2023/04/03 17:23:05;;;;;;;1.50;1.20;;;9.00;74.90;;;;;;4995145;28;20488;-75
2023/04/03 17:25:32;;;;;;;1.50;1.10;;;9.00;75.10;;;;;;5005425;28;20479;-74
2023/04/03 17:27:59;;;;;;;1.50;1.20;;;8.90;75.60;;;;;;4993009;28;20546;-74
2023/04/03 17:30:28;;;;;;;1.50;1.20;;;8.90;75.00;;;;;;4997520;28;20491;-74
2023/04/03 17:32:55;;;;;;;1.50;1.17;;;8.70;75.20;;;;;;4989305;28;20484;-74
2023/04/03 17:35:22;;;;;;;1.50;1.20;;;8.60;75.20;;;;;;5001730;28;20550;-74
2023/04/03 17:37:51;;;;;;;1.50;1.20;;;8.60;75.20;;;;;;4990083;28;20525;-73
2023/04/03 17:40:19;;;;;;;1.50;1.20;;;8.50;75.00;;;;;;5004105;28;20464;-73
2023/04/03 17:42:46;;;;;;;1.50;1.20;;;8.50;75.90;;;;;;4993366;28;21026;-73
2023/04/03 17:45:13;;;;;;;1.50;1.20;;;8.40;76.10;;;;;;5002274;28;20542;-73
2023/04/03 17:47:42;;;;;;;1.50;1.30;;;8.40;76.40;;;;;;4992895;28;20496;-73
2023/04/03 17:50:10;;;;;;;1.50;1.37;;;8.30;76.40;;;;;;4999603;28;21014;-76
2023/04/03 17:52:37;;;;;;;1.50;1.20;;;8.30;77.00;;;;;;4994940;28;20518;-74
2023/04/03 17:55:05;;;;;;;1.50;1.20;;;8.20;77.30;;;;;;5001660;28;20928;-75
2023/04/03 17:57:32;;;;;;;1.50;1.30;;;8.20;77.80;;;;;;4994774;28;21138;-73
2023/04/03 17:59:59;;;;;;;1.50;1.27;;;8.10;77.30;;;;;;5005029;28;20963;-74
2023/04/03 18:02:26;;;;;;;1.50;1.20;;;8.00;77.40;;;;;;4994537;28;20586;-74
2023/04/03 18:04:55;;;;;;;1.50;1.23;;;8.00;78.00;;;;;;5002839;28;20771;-75
2023/04/03 18:07:22;;;;;;;1.50;1.20;;;7.90;78.40;;;;;;4994743;28;20487;-75
2023/04/03 18:09:51;;;;;;;1.50;1.30;;;7.80;77.50;;;;;;5000238;28;20484;-74
2023/04/03 18:12:18;;;;;;;1.50;1.30;;;7.80;77.50;;;;;;4992451;28;20567;-74
2023/04/03 18:14:46;;;;;;;1.50;1.40;;;7.70;78.00;;;;;;5003875;28;20492;-74
2023/04/03 18:17:14;;;;;;;1.50;1.20;;;7.70;78.10;;;;;;4994930;28;20511;-74
2023/04/03 18:19:41;;;;;;;1.50;1.20;;;7.60;78.50;;;;;;5002623;28;20460;-74
2023/04/03 18:22:14;;;;;;;1.50;1.20;;;7.60;79.00;;;;;;4993961;28;20526;-74
2023/04/03 18:24:42;;;;;;;1.50;1.20;;;7.50;79.20;;;;;;5003067;28;20471;-77
2023/04/03 18:27:12;;;;;;;1.50;1.27;;;7.40;79.20;;;;;;4994286;28;20456;-76
2023/04/03 18:29:42;;;;;;;1.50;1.33;;;7.40;79.50;;;;;;5002658;28;20499;-75
2023/04/03 18:32:12;;;;;;;1.50;1.30;;;7.30;79.50;;;;;;4993086;28;20484;-74
2023/04/03 18:34:39;;;;;;;1.50;1.30;;;7.30;79.60;;;;;;5002367;28;20526;-74
2023/04/03 18:37:06;;;;;;;1.50;1.23;;;7.20;80.10;;;;;;4991798;28;20492;-73
2023/04/03 18:39:35;;;;;;;1.60;1.50;;;7.20;80.60;;;;;;5002572;28;20460;-75
2023/04/03 18:42:07;;;;;;;1.50;1.20;;;7.10;80.30;;;;;;4992410;28;20487;-73
2023/04/03 18:44:36;;;;;;;1.50;1.30;;;7.10;80.50;;;;;;5001570;28;20543;-74
2023/04/03 18:47:03;;;;;;;1.50;1.20;;;7.00;80.70;;;;;;4992210;28;20488;-75
2023/04/03 18:49:32;;;;;;;2.43;2.23;;;7.00;80.60;;;;;;5000581;28;20488;-75